FLTA4: Red River, Fulton, AR

Data processed at Fri Mar 09 2018 23:24


All information presented herein is the property of the government of the United States of America and may be revised or deleted at any time without prior notice.
Dissemination of this information without the expressed written consent of the Public Affairs Office, Tulsa District U.S. Army Corps of Engineers is strictly prohibited.
These data are gathered electronically and, as presented, have not undergone any form of quality control. These data are not guaranteed to be valid or correct.
Go to home page.
Go to station list.

Upstream stations:


Previous Day
Next Day
Current Day
    
SHEF ID:       FLTA4     Red River nr Fulton
STATION TYPE:  

               PRECIP     STAGE  RIV-FLOW   VOLTAGE
                   in        ft       cfs      volt
              Ccp-Rev   Ccp-Rev   Ccp-Rev   Ccp-Rev
(US/Central)
03/07 00:00      0.00     17.98     83713     12.50
03/07 01:00      0.00     18.02     83965     12.50
03/07 02:00      0.00     17.98     83713     12.50
03/07 03:00      0.00     17.99     83776     12.40
03/07 04:00      0.00     17.99     83776     12.40
03/07 05:00      0.00     18.00     83840     12.40
03/07 06:00      0.00     17.99     83776     12.40
03/07 07:00      0.00     17.98     83713     12.40
03/07 08:00      0.00     17.99     83776     12.90
03/07 09:00      0.00     18.01     83902     13.80
03/07 10:00      0.00     18.03     84027     13.30
03/07 11:00      0.00     18.00     83840     13.20
03/07 12:00      0.00     18.02     83965     13.20
03/07 13:00      0.00     18.04     84089     13.20
03/07 14:00      0.00     18.06     84214     13.30
03/07 15:00      0.00     18.05     84152     13.20
03/07 16:00      0.00     18.08     84339     13.30
03/07 17:00      0.00     18.10     84464     13.30
03/07 18:00      0.00     18.10     84464     12.90
03/07 19:00      0.00     18.09     84401     12.70
03/07 20:00      0.00     18.09     84401     12.60
03/07 21:00      0.00     18.12     84588     12.60
03/07 22:00      0.00     18.13     84651     12.60
03/07 23:00      0.00     18.14     84713     12.50